Cabramurra, Australia
Current Conditions -  °F | °C
As of 8:00 PM on Saturday 29 Nov 2014 (Local Time) from YCOM Reporting Station
Scattered Clouds Scattered Clouds  
Wind Chill: 66°   Ceiling: Unl
Heat Index: 66°   Visibility: 6mi
Dew Point: 50°   Wind: 13mph
Humidity: 56%   Direction: 70°ENE
Pressure: 30"   Gusts: NA
Location:  35.93°S, 148.38°E
Report Text: YCOM 290900Z AUTO 07011KT 9999 // SCT096 19/10 Q1016
Loading
Personal Weather Stations






























Interactive Weather Map New forecast layout! Learn more

10-Day Weather Forecast

Advertisements
Track Severe Weather on mobile